Flight Track Log - Related Links

Times and Time Zones

All times are in EDT time to prevent confusion due to time zone crossing. See the SAS4417 flight status page for this flight to view local times or setup timezone preferences in your user account.

Time Position Orientation Groundspeed Altitude Reporting Facility
EDT Latitude Longitude Course Direction KTS MPH feet Rate Location/Type
Mon 08:25:00 AM 68.2101 17.2567 203° Southwest  Level Estimated
Mon 08:26:00 AM 68.1175 17.1599 201° Southwest  Level Estimated
Mon 08:27:00 AM 68.0249 17.0639 201° Southwest  Level Estimated
Mon 08:28:00 AM 67.9322 16.9687 201° Southwest  Level Estimated
Mon 08:29:00 AM 67.8394 16.8742 201° Southwest  Level Estimated
Mon 08:30:00 AM 67.7466 16.7805 201° Southwest  Level Estimated
Mon 08:31:00 AM 67.6538 16.6875 201° Southwest  Level Estimated
Mon 08:32:00 AM 67.5608 16.5952 201° Southwest  Level Estimated
Mon 08:33:00 AM 67.4679 16.5037 201° Southwest  Level Estimated
Mon 08:34:00 AM 67.3748 16.4128 201° Southwest  Level Estimated
Mon 08:35:00 AM 67.2818 16.3227 201° Southwest  Level Estimated
Mon 08:36:00 AM 67.1887 16.2333 200° South  Level Estimated
Mon 08:37:00 AM 67.0955 16.1445 200° South  Level Estimated
Mon 08:38:00 AM 67.0023 16.0565 200° South  Level Estimated
Mon 08:39:00 AM 66.9090 15.9691 200° South  Level Estimated
Mon 08:40:00 AM 66.8157 15.8824 200° South  Level Estimated
Mon 08:41:00 AM 66.7223 15.7963 200° South  Level Estimated
Mon 08:42:00 AM 66.6289 15.7109 200° South  Level Estimated
Mon 08:43:00 AM 66.5355 15.6261 200° South  Level Estimated
Mon 08:44:00 AM 66.4419 15.5420 200° South  Level Estimated
Mon 08:45:00 AM 66.3484 15.4585 200° South  Level Estimated
Mon 08:46:00 AM 66.2548 15.3756 200° South  Level Estimated
Mon 08:47:00 AM 66.1612 15.2933 200° South  Level Estimated
Mon 08:48:00 AM 66.0675 15.2117 199° South  Level Estimated
Mon 08:49:00 AM 65.9738 15.1306 199° South  Level Estimated
Mon 08:50:00 AM 65.8800 15.0501 199° South  Level Estimated
Mon 08:51:00 AM 65.7862 14.9702 199° South  Level Estimated
Mon 08:52:00 AM 65.6924 14.8909 199° South  Level Estimated
Mon 08:53:00 AM 65.5985 14.8122 199° South  Level Estimated
Mon 08:54:00 AM 65.4986 14.7291 199° South  Level Estimated
Mon 08:55:00 AM 65.3987 14.6467 199° South  Level Estimated
Mon 08:56:00 AM 65.2988 14.5648 199° South  Level Estimated
Mon 08:57:00 AM 65.1988 14.4836 199° South  Level Estimated
Mon 08:58:00 AM 65.0987 14.4030 199° South  Level Estimated
Mon 08:59:00 AM 64.9986 14.3230 199° South  Level Estimated
Mon 09:00:00 AM 64.8985 14.2436 199° South  Level Estimated
Mon 09:01:00 AM 64.7984 14.1648 199° South  Level Estimated
Mon 09:02:00 AM 64.6982 14.0866 198° South  Level Estimated
Mon 09:03:00 AM 64.5979 14.0089 198° South  Level Estimated
Mon 09:04:00 AM 64.4976 13.9319 198° South  Level Estimated
Mon 09:05:00 AM 64.3973 13.8553 198° South  Level Estimated
Mon 09:06:00 AM 64.2969 13.7794 198° South  Level Estimated
Mon 09:07:00 AM 64.1965 13.7040 198° South  Level Estimated
Mon 09:08:00 AM 64.0960 13.6291 198° South  Level Estimated
Mon 09:09:00 AM 63.9956 13.5548 198° South  Level Estimated
Mon 09:10:00 AM 63.8951 13.4810 198° South  Level Estimated
Mon 09:11:00 AM 63.7945 13.4078 198° South  Level Estimated
Mon 09:12:00 AM 63.6939 13.3350 198° South  Level Estimated
Mon 09:13:00 AM 63.5933 13.2628 198° South  Level Estimated
Mon 09:14:00 AM 63.4926 13.1911 198° South  Level Estimated
Mon 09:15:00 AM 63.3919 13.1199 198° South  Level Estimated
Mon 09:16:00 AM 63.2911 13.0492 198° South  Level Estimated
Mon 09:17:00 AM 63.1904 12.9789 197° South  Level Estimated
Mon 09:18:00 AM 63.0896 12.9092 197° South  Level Estimated
Mon 09:19:00 AM 62.9887 12.8400 197° South  Level Estimated
Mon 09:20:00 AM 62.8879 12.7712 197° South  Level Estimated
Mon 09:21:00 AM 62.7825 12.6999 197° South  Level Estimated
Mon 09:22:00 AM 62.6771 12.6291 197° South  Level Estimated
Mon 09:23:00 AM 62.5717 12.5588 197° South  Level Estimated
Mon 09:24:00 AM 62.4663 12.4890 197° South  Level Estimated
Mon 09:25:00 AM 62.3608 12.4197 197° South  Level Estimated
Mon 09:26:00 AM 62.2552 12.3509 197° South  Level Estimated
Mon 09:27:00 AM 62.1497 12.2826 197° South  Level Estimated
Mon 09:28:00 AM 62.0441 12.2147 197° South  Level Estimated
Mon 09:29:00 AM 61.9385 12.1473 197° South  Level Estimated
Mon 09:30:00 AM 61.8328 12.0804 197° South  Level Estimated
Mon 09:31:00 AM 61.7271 12.0139 197° South  Level Estimated
Mon 09:32:00 AM 61.6214 11.9479 197° South  Level Estimated
Mon 09:33:00 AM 61.5157 11.8824 196° South  Level Estimated
Mon 09:34:00 AM 61.4099 11.8173 196° South  Level Estimated
Mon 09:35:00 AM 61.3041 11.7526 196° South  Level Estimated
Mon 09:36:00 AM 61.1982 11.6883 196° South  Level Estimated
Mon 09:37:00 AM 61.0924 11.6245 196° South  Level Estimated
Mon 09:38:00 AM 60.9865 11.5611 196° South  Level Estimated
Mon 09:39:00 AM 60.8805 11.4982 196° South  Level Estimated
Mon 09:40:00 AM 60.7746 11.4356 196° South  Level Estimated
Mon 09:41:00 AM 60.6686 11.3735 196° South  Level Estimated
Mon 09:42:00 AM 60.5626 11.3118 196° South  Level Estimated
Mon 09:43:00 AM 60.4565 11.2504 196° South  Level Estimated
Mon 09:44:00 AM 60.3504 11.1895 196° South  Level Estimated
Mon 09:45:00 AM 60.2444 11.1290 196° South  Level Estimated
Mon 09:46:00 AM 60.1939 11.1004 196° South  Level Estimated
Mon 09:47:00 AM 60.1939 11.1004 171° South  Level Estimated
Mon 09:48:00 AM 60.1939 11.1004 171° South  Level Estimated
Mon 09:49:00 AM 60.1939 11.1004 171° South  Level Estimated
Mon 09:50:00 AM 60.1939 11.1004 171° South  Level Estimated
Mon 09:51:00 AM 60.1939 11.1004 171° South  Level Estimated
Mon 09:52:00 AM 60.1939 11.1004 171° South  Level Estimated
Mon 09:53:00 AM 60.1939 11.1004 171° South  Level Estimated
Mon 09:54:00 AM 60.1939 11.1004 171° South  Level Estimated
Mon 09:55:00 AM 60.1939 11.1004 171° South  Level Estimated
Mon 09:56:00 AM 60.1939 11.1004 171° South  Level Estimated

Login

Don't have an account? Register now (free) for customized features, flight alerts, and more!